Aeroporto :
LOGIN :

Iscrizione | Disclaimer

   EN    FR    IT 

 










Sommario :    VFR   VFR Marginale   IFR   IFR Intensivo   IFR Molto Intensivo
Visibilità : 
Base nubi : 
>= 8 km
>= 3000ft
5 / 8 km
1000 / 3000 ft
1500m / 5 km
500 / 1000 ft
800 / 1500m
200 / 500 ft
< 800m
< 200 ft
Simboli :   Temporali  Nebbia  Neve Forte  Precipitazioni Forti  Vento > 20 kt
SIGMETs :   Varie  Temporali  Ghiacco  Turbolenza  Onda orograficha  Ceneri Vulcaniche







- Altitudine del aeroporto : 135 ft
- Codice IATA : EDI
- Carte del aeroporto


EGPH - Edinburgh

ULTIMO METAR :
  • 252150Z 26006KT CAVOK 05/02 Q1033

METARs OBSOLETI :
  • 252120Z 26005KT CAVOK 05/01 Q1033
  • 252050Z VRB03KT 9999 FEW042 05/01 Q1033
  • 252020Z 25005KT 9999 FEW042 06/01 Q1033
  • 251950Z 27004KT 9999 FEW041 08/02 Q1033

TAF TAF EGPH
Valido dal 25 a 18 ore il 26 a 18 ore UTC


251658Z 2518/2618 26009KT 9999 SCT040
PROB30
TEMPO 2601/2607 FEW006 BKN014
TEMPO 2608/2618 25015G25KT
PROB40
TEMPO 2609/2618 BKN014
ATIS : +44 131 339 2823
Nessun NOTAM noto per questo aeroporto.



MetMap, La meteo Aeronautica in un colpo d'occhio ! - Copyright ORBIFLY Dicembre 2007 - Disclaimer

ORBIFLY MET'MAP TEAM :

Programmazione e sviluppo : Alexandra Zaïnal
Concezione e sviluppo : Baudouin d'Aumeries
Co-Programmazione e sviluppo : Marc-Olivier Méhu
Supporto tecnico e logistico : Manuel Goepfert
Aiuto per la traduzione : Arnaldo La Scala

Contatto : metmap@orbifly.com




FONTI E CREDITI :

   NOAA